Terminal Aerodrome Forecast
Issued by NWS Upton, NY

Home | Current Version | Previous Version | Text Only | Print | Product List | Glossary On
Versions: 1 2 3 4 5 6 7 8 9 10 11 12 13 14 15 16 17 18 19 20 21 22 23 24 25 26 27 28 29 30
005
FTUS41 KOKX 281212 AAA
TAFJFK
TAF AMD
KJFK 281212Z 2812/2918 13005KT P6SM OVC009
     FM281300 14005KT P6SM BKN012
     FM281400 15007KT P6SM SCT015 SCT070
     FM281600 14008KT P6SM SCT070 BKN200
     FM281800 15011KT P6SM SCT070 BKN200
     FM290000 13008KT P6SM SCT015 BKN100
     FM290500 11009G15KT P6SM VCSH OVC015
     FM290800 10011G17KT 5SM -RA OVC015
     FM291100 11011G17KT 2SM -SHRA OVC010
     FM291300 11009KT 1 1/2SM -SHRA VCTS OVC008CB
     FM291600 07007KT P6SM VCTS OVC009CB=

USA.gov is the U.S. government's official web portal to all federal, state and local government web resources and services.